Terminal Aerodrome Forecast
Issued by NWS Central Illinois

Home | Current Version | Previous Version | Text Only | Print | Product List | Glossary On
Versions: 1 2 3 4 5 6 7 8 9 10 11 12 13 14
000
FTUS43 KILX 032118 AAA
TAFSPI
TAF AMD
KSPI 032118Z 0321/0418 24009KT P6SM SCT060
     FM040000 21003KT P6SM SCT100 BKN250
     FM041300 23007KT P6SM SCT045=

USA.gov is the U.S. government's official web portal to all federal, state and local government web resources and services.